sensor_id;sensor_type;location;lat;lon;timestamp;pressure;altitude;pressure_sealevel;temperature;humidity
41264;BME280;26998;48.714;9.414;2022-09-09T00:02:03;98420.00;;;12.63;100.00
41264;BME280;26998;48.714;9.414;2022-09-09T00:04:33;98404.16;;;12.62;100.00
41264;BME280;26998;48.714;9.414;2022-09-09T00:07:20;98415.78;;;12.56;100.00
41264;BME280;26998;48.714;9.414;2022-09-09T00:15:29;98405.31;;;12.47;100.00
41264;BME280;26998;48.714;9.414;2022-09-09T00:18:11;98404.28;;;12.48;100.00
41264;BME280;26998;48.714;9.414;2022-09-09T00:21:05;98403.31;;;12.43;100.00
41264;BME280;26998;48.714;9.414;2022-09-09T00:23:34;98404.13;;;12.43;100.00
41264;BME280;26998;48.714;9.414;2022-09-09T00:26:08;98405.47;;;12.34;100.00
41264;BME280;26998;48.714;9.414;2022-09-09T00:28:46;98401.84;;;12.22;100.00
41264;BME280;26998;48.714;9.414;2022-09-09T00:31:26;98393.81;;;12.22;100.00
41264;BME280;26998;48.714;9.414;2022-09-09T00:33:55;98396.94;;;12.19;100.00
41264;BME280;26998;48.714;9.414;2022-09-09T00:36:24;98386.22;;;12.19;100.00
41264;BME280;26998;48.714;9.414;2022-09-09T00:38:57;98389.28;;;12.22;100.00
41264;BME280;26998;48.714;9.414;2022-09-09T00:44:30;98388.28;;;12.17;100.00
41264;BME280;26998;48.714;9.414;2022-09-09T00:50:05;98396.06;;;12.25;100.00
41264;BME280;26998;48.714;9.414;2022-09-09T00:57:39;98402.66;;;12.47;100.00
41264;BME280;26998;48.714;9.414;2022-09-09T01:00:29;98397.00;;;12.56;100.00
41264;BME280;26998;48.714;9.414;2022-09-09T01:06:15;98401.47;;;12.62;100.00
41264;BME280;26998;48.714;9.414;2022-09-09T01:17:05;98404.28;;;12.48;100.00
41264;BME280;26998;48.714;9.414;2022-09-09T01:22:29;98401.09;;;12.40;100.00
41264;BME280;26998;48.714;9.414;2022-09-09T01:25:18;98398.09;;;12.48;100.00
41264;BME280;26998;48.714;9.414;2022-09-09T01:27:48;98396.09;;;12.43;100.00
41264;BME280;26998;48.714;9.414;2022-09-09T01:30:17;98403.91;;;12.45;100.00
41264;BME280;26998;48.714;9.414;2022-09-09T01:32:54;98397.41;;;12.34;100.00
41264;BME280;26998;48.714;9.414;2022-09-09T01:38:06;98389.78;;;12.13;100.00
41264;BME280;26998;48.714;9.414;2022-09-09T01:40:33;98403.13;;;12.19;100.00
41264;BME280;26998;48.714;9.414;2022-09-09T01:42:59;98409.16;;;12.08;100.00
41264;BME280;26998;48.714;9.414;2022-09-09T01:45:26;98408.22;;;12.02;100.00
41264;BME280;26998;48.714;9.414;2022-09-09T01:47:52;98413.16;;;11.99;100.00
41264;BME280;26998;48.714;9.414;2022-09-09T01:50:20;98410.28;;;12.00;100.00
41264;BME280;26998;48.714;9.414;2022-09-09T01:52:50;98416.19;;;12.09;100.00
41264;BME280;26998;48.714;9.414;2022-09-09T01:55:27;98415.88;;;11.92;100.00
41264;BME280;26998;48.714;9.414;2022-09-09T02:00:45;98409.78;;;11.78;100.00
41264;BME280;26998;48.714;9.414;2022-09-09T02:03:27;98416.56;;;11.81;100.00
41264;BME280;26998;48.714;9.414;2022-09-09T02:06:10;98408.34;;;11.76;100.00
41264;BME280;26998;48.714;9.414;2022-09-09T02:08:50;98414.53;;;11.76;100.00
41264;BME280;26998;48.714;9.414;2022-09-09T02:11:19;98415.78;;;11.74;100.00
41264;BME280;26998;48.714;9.414;2022-09-09T02:13:49;98423.00;;;11.73;100.00
41264;BME280;26998;48.714;9.414;2022-09-09T02:16:32;98421.09;;;11.80;100.00
41264;BME280;26998;48.714;9.414;2022-09-09T02:21:35;98419.88;;;11.76;100.00
41264;BME280;26998;48.714;9.414;2022-09-09T02:24:04;98419.13;;;11.69;100.00
41264;BME280;26998;48.714;9.414;2022-09-09T02:26:33;98427.78;;;11.65;100.00
41264;BME280;26998;48.714;9.414;2022-09-09T02:29:03;98419.78;;;11.58;100.00
41264;BME280;26998;48.714;9.414;2022-09-09T02:31:32;98421.84;;;11.63;100.00
41264;BME280;26998;48.714;9.414;2022-09-09T02:34:01;98420.34;;;11.67;100.00
41264;BME280;26998;48.714;9.414;2022-09-09T02:36:32;98408.59;;;11.68;100.00
41264;BME280;26998;48.714;9.414;2022-09-09T02:39:00;98408.19;;;11.71;100.00
41264;BME280;26998;48.714;9.414;2022-09-09T02:41:32;98412.50;;;11.72;100.00
41264;BME280;26998;48.714;9.414;2022-09-09T02:43:59;98411.09;;;11.69;100.00
41264;BME280;26998;48.714;9.414;2022-09-09T02:47:01;98410.84;;;11.71;100.00
41264;BME280;26998;48.714;9.414;2022-09-09T02:52:06;98415.22;;;11.65;100.00
41264;BME280;26998;48.714;9.414;2022-09-09T02:54:37;98408.03;;;11.66;100.00
41264;BME280;26998;48.714;9.414;2022-09-09T02:59:37;98429.88;;;11.63;100.00
41264;BME280;26998;48.714;9.414;2022-09-09T03:02:04;98423.50;;;11.57;100.00
41264;BME280;26998;48.714;9.414;2022-09-09T03:04:31;98423.56;;;11.50;100.00
41264;BME280;26998;48.714;9.414;2022-09-09T03:06:58;98423.31;;;11.52;100.00
41264;BME280;26998;48.714;9.414;2022-09-09T03:09:25;98428.66;;;11.52;100.00
41264;BME280;26998;48.714;9.414;2022-09-09T03:11:52;98427.03;;;11.51;100.00
41264;BME280;26998;48.714;9.414;2022-09-09T03:14:18;98424.41;;;11.44;100.00
41264;BME280;26998;48.714;9.414;2022-09-09T03:16:48;98428.31;;;11.42;100.00
41264;BME280;26998;48.714;9.414;2022-09-09T03:19:14;98431.19;;;11.47;100.00
41264;BME280;26998;48.714;9.414;2022-09-09T03:21:42;98432.59;;;11.49;100.00
41264;BME280;26998;48.714;9.414;2022-09-09T03:24:08;98430.72;;;11.56;100.00
41264;BME280;26998;48.714;9.414;2022-09-09T03:26:34;98426.56;;;11.61;100.00
41264;BME280;26998;48.714;9.414;2022-09-09T03:29:01;98429.38;;;11.72;100.00
41264;BME280;26998;48.714;9.414;2022-09-09T03:31:28;98421.13;;;11.74;100.00
41264;BME280;26998;48.714;9.414;2022-09-09T03:33:54;98435.09;;;11.83;100.00
41264;BME280;26998;48.714;9.414;2022-09-09T03:36:20;98438.13;;;11.93;100.00
41264;BME280;26998;48.714;9.414;2022-09-09T03:38:47;98432.81;;;11.86;100.00
41264;BME280;26998;48.714;9.414;2022-09-09T03:41:13;98439.25;;;11.78;100.00
41264;BME280;26998;48.714;9.414;2022-09-09T03:43:40;98429.34;;;11.79;100.00
41264;BME280;26998;48.714;9.414;2022-09-09T03:46:06;98429.97;;;11.81;100.00
41264;BME280;26998;48.714;9.414;2022-09-09T03:48:33;98431.81;;;11.87;100.00
41264;BME280;26998;48.714;9.414;2022-09-09T03:51:00;98431.38;;;11.90;100.00
41264;BME280;26998;48.714;9.414;2022-09-09T03:53:27;98438.34;;;11.91;100.00
41264;BME280;26998;48.714;9.414;2022-09-09T03:55:55;98433.66;;;11.80;100.00
41264;BME280;26998;48.714;9.414;2022-09-09T03:58:22;98435.22;;;11.63;100.00
41264;BME280;26998;48.714;9.414;2022-09-09T04:01:08;98426.63;;;11.54;100.00
41264;BME280;26998;48.714;9.414;2022-09-09T04:03:36;98426.19;;;11.57;100.00
41264;BME280;26998;48.714;9.414;2022-09-09T04:06:03;98423.31;;;11.52;100.00
41264;BME280;26998;48.714;9.414;2022-09-09T04:08:30;98415.94;;;11.47;100.00
41264;BME280;26998;48.714;9.414;2022-09-09T04:10:57;98421.69;;;11.51;100.00
41264;BME280;26998;48.714;9.414;2022-09-09T04:13:24;98430.75;;;11.50;100.00
41264;BME280;26998;48.714;9.414;2022-09-09T04:15:53;98426.22;;;11.50;100.00
41264;BME280;26998;48.714;9.414;2022-09-09T04:18:20;98422.78;;;11.43;100.00
41264;BME280;26998;48.714;9.414;2022-09-09T04:20:48;98424.44;;;11.38;100.00
41264;BME280;26998;48.714;9.414;2022-09-09T04:23:15;98425.69;;;11.35;100.00
41264;BME280;26998;48.714;9.414;2022-09-09T04:25:48;98417.03;;;11.33;100.00
41264;BME280;26998;48.714;9.414;2022-09-09T04:28:17;98416.88;;;11.28;100.00
41264;BME280;26998;48.714;9.414;2022-09-09T04:30:44;98423.00;;;11.35;100.00
41264;BME280;26998;48.714;9.414;2022-09-09T04:33:12;98431.81;;;11.42;100.00
41264;BME280;26998;48.714;9.414;2022-09-09T04:35:47;98424.56;;;11.49;100.00
41264;BME280;26998;48.714;9.414;2022-09-09T04:38:14;98416.84;;;11.35;100.00
41264;BME280;26998;48.714;9.414;2022-09-09T04:40:46;98418.03;;;11.39;100.00
41264;BME280;26998;48.714;9.414;2022-09-09T04:43:13;98416.63;;;11.36;100.00
41264;BME280;26998;48.714;9.414;2022-09-09T04:45:43;98421.72;;;11.44;100.00
41264;BME280;26998;48.714;9.414;2022-09-09T04:48:10;98421.69;;;11.51;100.00
41264;BME280;26998;48.714;9.414;2022-09-09T04:50:36;98431.78;;;11.49;100.00
41264;BME280;26998;48.714;9.414;2022-09-09T04:53:04;98426.25;;;11.44;100.00
41264;BME280;26998;48.714;9.414;2022-09-09T04:55:32;98427.47;;;11.48;100.00
41264;BME280;26998;48.714;9.414;2022-09-09T04:58:03;98443.72;;;11.46;100.00
41264;BME280;26998;48.714;9.414;2022-09-09T05:00:30;98444.56;;;11.47;100.00
41264;BME280;26998;48.714;9.414;2022-09-09T05:02:56;98439.81;;;11.49;100.00
41264;BME280;26998;48.714;9.414;2022-09-09T05:05:23;98433.56;;;11.62;100.00
41264;BME280;26998;48.714;9.414;2022-09-09T05:07:49;98436.88;;;11.57;100.00
41264;BME280;26998;48.714;9.414;2022-09-09T05:10:16;98434.41;;;11.62;100.00
41264;BME280;26998;48.714;9.414;2022-09-09T05:12:42;98434.56;;;11.67;100.00
41264;BME280;26998;48.714;9.414;2022-09-09T05:15:09;98437.84;;;11.69;100.00
41264;BME280;26998;48.714;9.414;2022-09-09T05:17:35;98434.16;;;11.64;100.00
41264;BME280;26998;48.714;9.414;2022-09-09T05:20:02;98441.00;;;11.60;100.00
41264;BME280;26998;48.714;9.414;2022-09-09T05:22:34;98446.94;;;11.62;100.00
41264;BME280;26998;48.714;9.414;2022-09-09T05:25:01;98450.28;;;11.57;100.00
41264;BME280;26998;48.714;9.414;2022-09-09T05:27:27;98447.97;;;11.61;100.00
41264;BME280;26998;48.714;9.414;2022-09-09T05:30:02;98448.56;;;11.69;100.00
41264;BME280;26998;48.714;9.414;2022-09-09T05:32:29;98443.94;;;11.83;100.00
41264;BME280;26998;48.714;9.414;2022-09-09T05:34:56;98444.16;;;11.88;100.00
41264;BME280;26998;48.714;9.414;2022-09-09T05:37:22;98440.91;;;11.73;100.00
41264;BME280;26998;48.714;9.414;2022-09-09T05:39:49;98440.03;;;11.86;100.00
41264;BME280;26998;48.714;9.414;2022-09-09T05:42:15;98446.81;;;11.88;100.00
41264;BME280;26998;48.714;9.414;2022-09-09T05:44:42;98450.44;;;12.00;100.00
41264;BME280;26998;48.714;9.414;2022-09-09T05:47:08;98449.25;;;11.96;100.00
41264;BME280;26998;48.714;9.414;2022-09-09T05:49:35;98447.94;;;12.06;100.00
41264;BME280;26998;48.714;9.414;2022-09-09T05:52:02;98448.09;;;12.11;100.00
41264;BME280;26998;48.714;9.414;2022-09-09T05:54:28;98452.16;;;12.20;100.00
41264;BME280;26998;48.714;9.414;2022-09-09T05:56:54;98465.66;;;12.32;100.00
41264;BME280;26998;48.714;9.414;2022-09-09T05:59:21;98459.69;;;12.55;100.00
41264;BME280;26998;48.714;9.414;2022-09-09T06:01:47;98461.38;;;12.74;100.00
41264;BME280;26998;48.714;9.414;2022-09-09T06:04:14;98461.03;;;12.64;100.00
41264;BME280;26998;48.714;9.414;2022-09-09T06:06:40;98455.97;;;12.56;100.00
41264;BME280;26998;48.714;9.414;2022-09-09T06:09:08;98467.78;;;12.48;100.00
41264;BME280;26998;48.714;9.414;2022-09-09T06:11:36;98463.41;;;12.54;100.00
41264;BME280;26998;48.714;9.414;2022-09-09T06:14:04;98456.34;;;12.59;100.00
41264;BME280;26998;48.714;9.414;2022-09-09T06:16:31;98445.13;;;12.69;100.00
41264;BME280;26998;48.714;9.414;2022-09-09T06:18:58;98449.16;;;12.78;100.00
41264;BME280;26998;48.714;9.414;2022-09-09T06:21:27;98440.81;;;12.86;100.00
41264;BME280;26998;48.714;9.414;2022-09-09T06:23:54;98452.88;;;12.95;100.00
41264;BME280;26998;48.714;9.414;2022-09-09T06:26:28;98451.41;;;13.00;100.00
41264;BME280;26998;48.714;9.414;2022-09-09T06:28:56;98446.50;;;13.15;100.00
41264;BME280;26998;48.714;9.414;2022-09-09T06:31:24;98451.25;;;13.13;100.00
41264;BME280;26998;48.714;9.414;2022-09-09T06:33:56;98445.00;;;13.19;100.00
41264;BME280;26998;48.714;9.414;2022-09-09T06:36:31;98444.47;;;13.29;100.00
41264;BME280;26998;48.714;9.414;2022-09-09T06:38:58;98454.38;;;13.47;100.00
41264;BME280;26998;48.714;9.414;2022-09-09T06:41:27;98443.19;;;13.50;100.00
41264;BME280;26998;48.714;9.414;2022-09-09T06:43:54;98445.41;;;13.53;100.00
41264;BME280;26998;48.714;9.414;2022-09-09T06:46:23;98438.59;;;13.69;100.00
41264;BME280;26998;48.714;9.414;2022-09-09T06:48:49;98442.41;;;13.91;100.00
41264;BME280;26998;48.714;9.414;2022-09-09T06:51:20;98441.28;;;14.22;100.00
41264;BME280;26998;48.714;9.414;2022-09-09T06:53:52;98447.63;;;14.28;100.00
41264;BME280;26998;48.714;9.414;2022-09-09T06:58:50;98452.34;;;14.56;100.00
41264;BME280;26998;48.714;9.414;2022-09-09T07:01:23;98449.66;;;14.68;100.00
41264;BME280;26998;48.714;9.414;2022-09-09T07:03:52;98453.59;;;14.89;100.00
41264;BME280;26998;48.714;9.414;2022-09-09T07:06:21;98452.16;;;15.21;100.00
41264;BME280;26998;48.714;9.414;2022-09-09T07:08:55;98456.75;;;15.50;100.00
41264;BME280;26998;48.714;9.414;2022-09-09T07:11:24;98452.47;;;15.77;100.00
41264;BME280;26998;48.714;9.414;2022-09-09T07:13:50;98451.03;;;16.03;100.00
41264;BME280;26998;48.714;9.414;2022-09-09T07:16:19;98447.84;;;16.06;100.00
41264;BME280;26998;48.714;9.414;2022-09-09T07:18:46;98446.53;;;15.92;100.00
41264;BME280;26998;48.714;9.414;2022-09-09T07:21:14;98443.78;;;16.21;100.00
41264;BME280;26998;48.714;9.414;2022-09-09T07:23:41;98434.34;;;16.91;100.00
41264;BME280;26998;48.714;9.414;2022-09-09T07:26:14;98426.44;;;16.84;99.06
41264;BME280;26998;48.714;9.414;2022-09-09T07:28:41;98433.63;;;17.17;98.28
41264;BME280;26998;48.714;9.414;2022-09-09T07:31:23;98436.44;;;17.27;94.51
41264;BME280;26998;48.714;9.414;2022-09-09T07:33:49;98440.22;;;17.26;93.98
41264;BME280;26998;48.714;9.414;2022-09-09T07:38:48;98440.00;;;18.04;90.10
41264;BME280;26998;48.714;9.414;2022-09-09T07:41:21;98440.16;;;18.62;85.87
41264;BME280;26998;48.714;9.414;2022-09-09T07:43:49;98433.38;;;18.22;85.36
41264;BME280;26998;48.714;9.414;2022-09-09T07:46:18;98441.41;;;18.12;86.24
41264;BME280;26998;48.714;9.414;2022-09-09T07:48:50;98446.31;;;18.15;85.59
41264;BME280;26998;48.714;9.414;2022-09-09T07:51:23;98442.75;;;17.82;88.23
41264;BME280;26998;48.714;9.414;2022-09-09T07:53:58;98449.16;;;17.76;91.09
41264;BME280;26998;48.714;9.414;2022-09-09T07:56:27;98451.63;;;18.05;89.57
41264;BME280;26998;48.714;9.414;2022-09-09T07:58:55;98453.50;;;17.55;91.07
41264;BME280;26998;48.714;9.414;2022-09-09T08:01:34;98457.72;;;17.24;94.57
41264;BME280;26998;48.714;9.414;2022-09-09T08:04:04;98463.22;;;17.51;93.59
41264;BME280;26998;48.714;9.414;2022-09-09T08:06:35;98465.50;;;17.64;92.03
41264;BME280;26998;48.714;9.414;2022-09-09T08:09:02;98475.09;;;17.99;90.08
41264;BME280;26998;48.714;9.414;2022-09-09T08:11:29;98467.41;;;18.50;88.01
41264;BME280;26998;48.714;9.414;2022-09-09T08:14:02;98466.19;;;18.68;85.64
41264;BME280;26998;48.714;9.414;2022-09-09T08:16:32;98467.00;;;19.06;82.43
41264;BME280;26998;48.714;9.414;2022-09-09T08:18:59;98472.50;;;19.21;82.30
41264;BME280;26998;48.714;9.414;2022-09-09T08:21:31;98476.38;;;19.41;81.75
41264;BME280;26998;48.714;9.414;2022-09-09T08:23:59;98474.63;;;19.72;79.83
41264;BME280;26998;48.714;9.414;2022-09-09T08:26:28;98467.00;;;19.69;80.37
41264;BME280;26998;48.714;9.414;2022-09-09T08:28:56;98460.31;;;20.12;77.90
41264;BME280;26998;48.714;9.414;2022-09-09T08:33:50;98459.91;;;19.57;78.23
41264;BME280;26998;48.714;9.414;2022-09-09T08:36:25;98456.94;;;19.54;77.27
41264;BME280;26998;48.714;9.414;2022-09-09T08:38:54;98456.53;;;20.13;74.39
41264;BME280;26998;48.714;9.414;2022-09-09T08:44:19;98470.34;;;20.98;70.56
41264;BME280;26998;48.714;9.414;2022-09-09T08:52:28;98476.66;;;20.58;74.35
41264;BME280;26998;48.714;9.414;2022-09-09T08:55:01;98467.34;;;21.15;70.98
41264;BME280;26998;48.714;9.414;2022-09-09T08:57:30;98467.75;;;21.53;66.66
41264;BME280;26998;48.714;9.414;2022-09-09T08:59:58;98461.72;;;20.81;68.87
41264;BME280;26998;48.714;9.414;2022-09-09T09:02:40;98466.09;;;20.57;70.13
41264;BME280;26998;48.714;9.414;2022-09-09T09:07:59;98475.53;;;20.90;67.56
41264;BME280;26998;48.714;9.414;2022-09-09T09:10:46;98480.69;;;20.86;68.26
41264;BME280;26998;48.714;9.414;2022-09-09T09:15:53;98470.50;;;21.53;64.47
41264;BME280;26998;48.714;9.414;2022-09-09T09:18:22;98469.22;;;21.25;64.25
41264;BME280;26998;48.714;9.414;2022-09-09T09:23:32;98456.91;;;21.48;63.21
41264;BME280;26998;48.714;9.414;2022-09-09T09:26:06;98462.34;;;21.48;62.97
41264;BME280;26998;48.714;9.414;2022-09-09T09:28:36;98463.72;;;21.30;63.43
41264;BME280;26998;48.714;9.414;2022-09-09T09:31:08;98468.47;;;20.94;64.23
41264;BME280;26998;48.714;9.414;2022-09-09T09:36:16;98456.41;;;21.36;62.89
41264;BME280;26998;48.714;9.414;2022-09-09T09:38:57;98460.28;;;21.74;62.62
41264;BME280;26998;48.714;9.414;2022-09-09T09:41:43;98461.94;;;22.20;60.13
41264;BME280;26998;48.714;9.414;2022-09-09T09:44:39;98462.56;;;22.06;58.32
41264;BME280;26998;48.714;9.414;2022-09-09T09:47:12;98466.03;;;22.17;58.78
41264;BME280;26998;48.714;9.414;2022-09-09T09:49:39;98453.75;;;22.59;57.92
41264;BME280;26998;48.714;9.414;2022-09-09T09:52:11;98450.34;;;22.43;55.99
41264;BME280;26998;48.714;9.414;2022-09-09T09:54:41;98448.63;;;22.52;57.73
41264;BME280;26998;48.714;9.414;2022-09-09T09:57:12;98441.59;;;23.04;54.73
41264;BME280;26998;48.714;9.414;2022-09-09T09:59:39;98441.88;;;22.45;53.08
41264;BME280;26998;48.714;9.414;2022-09-09T10:02:14;98446.53;;;21.55;51.19
41264;BME280;26998;48.714;9.414;2022-09-09T10:04:41;98434.69;;;21.26;50.48
41264;BME280;26998;48.714;9.414;2022-09-09T10:07:20;98432.38;;;20.68;51.99
41264;BME280;26998;48.714;9.414;2022-09-09T10:09:53;98437.81;;;20.17;53.33
41264;BME280;26998;48.714;9.414;2022-09-09T10:16:06;98425.06;;;20.79;51.66
41264;BME280;26998;48.714;9.414;2022-09-09T10:18:36;98431.00;;;20.91;50.28
41264;BME280;26998;48.714;9.414;2022-09-09T10:26:55;98432.00;;;21.15;51.85
41264;BME280;26998;48.714;9.414;2022-09-09T10:34:55;98418.22;;;21.61;52.31
41264;BME280;26998;48.714;9.414;2022-09-09T10:37:46;98412.28;;;22.33;51.39
41264;BME280;26998;48.714;9.414;2022-09-09T10:43:02;98413.97;;;22.58;48.24
41264;BME280;26998;48.714;9.414;2022-09-09T10:45:54;98419.03;;;22.99;48.76
41264;BME280;26998;48.714;9.414;2022-09-09T10:51:26;98423.22;;;23.15;46.59
41264;BME280;26998;48.714;9.414;2022-09-09T10:56:42;98424.22;;;23.86;46.27
41264;BME280;26998;48.714;9.414;2022-09-09T10:59:33;98433.94;;;24.11;44.28
41264;BME280;26998;48.714;9.414;2022-09-09T11:02:20;98424.06;;;23.11;44.41
41264;BME280;26998;48.714;9.414;2022-09-09T11:04:55;98422.19;;;24.11;43.28
41264;BME280;26998;48.714;9.414;2022-09-09T11:10:02;98417.28;;;24.27;43.47
41264;BME280;26998;48.714;9.414;2022-09-09T11:12:34;98417.19;;;24.18;44.78
41264;BME280;26998;48.714;9.414;2022-09-09T11:15:08;98408.63;;;24.06;43.87
41264;BME280;26998;48.714;9.414;2022-09-09T11:17:50;98396.16;;;23.62;43.05
41264;BME280;26998;48.714;9.414;2022-09-09T11:20:17;98408.28;;;23.93;42.34
41264;BME280;26998;48.714;9.414;2022-09-09T11:22:48;98400.59;;;24.47;42.75
41264;BME280;26998;48.714;9.414;2022-09-09T11:25:37;98395.00;;;24.06;41.93
41264;BME280;26998;48.714;9.414;2022-09-09T11:31:07;98399.28;;;24.45;43.46
41264;BME280;26998;48.714;9.414;2022-09-09T11:33:58;98387.97;;;24.00;42.70
41264;BME280;26998;48.714;9.414;2022-09-09T11:39:34;98417.16;;;21.62;60.46
41264;BME280;26998;48.714;9.414;2022-09-09T11:44:38;98434.25;;;19.86;81.34
41264;BME280;26998;48.714;9.414;2022-09-09T11:47:26;98434.97;;;19.55;82.90
41264;BME280;26998;48.714;9.414;2022-09-09T11:49:53;98427.13;;;18.96;85.66
41264;BME280;26998;48.714;9.414;2022-09-09T11:52:34;98446.63;;;18.88;93.04
41264;BME280;26998;48.714;9.414;2022-09-09T11:55:24;98454.00;;;18.65;88.47
41264;BME280;26998;48.714;9.414;2022-09-09T11:58:02;98454.75;;;18.56;91.44
41264;BME280;26998;48.714;9.414;2022-09-09T12:00:42;98452.09;;;18.66;91.44
41264;BME280;26998;48.714;9.414;2022-09-09T12:03:41;98447.00;;;18.69;90.56
41264;BME280;26998;48.714;9.414;2022-09-09T12:06:25;98449.56;;;19.39;87.92
41264;BME280;26998;48.714;9.414;2022-09-09T12:08:58;98448.97;;;20.25;88.10
41264;BME280;26998;48.714;9.414;2022-09-09T12:11:32;98445.69;;;20.34;82.64
41264;BME280;26998;48.714;9.414;2022-09-09T12:14:00;98437.00;;;20.16;80.86
41264;BME280;26998;48.714;9.414;2022-09-09T12:16:35;98443.75;;;19.88;82.61
41264;BME280;26998;48.714;9.414;2022-09-09T12:19:20;98439.56;;;19.50;82.24
41264;BME280;26998;48.714;9.414;2022-09-09T12:22:09;98437.38;;;19.47;80.18
41264;BME280;26998;48.714;9.414;2022-09-09T12:24:41;98452.88;;;19.61;67.00
41264;BME280;26998;48.714;9.414;2022-09-09T12:27:28;98442.03;;;19.61;63.99
41264;BME280;26998;48.714;9.414;2022-09-09T12:30:10;98439.72;;;20.01;64.52
41264;BME280;26998;48.714;9.414;2022-09-09T12:32:37;98428.34;;;20.55;65.31
41264;BME280;26998;48.714;9.414;2022-09-09T12:35:11;98429.44;;;20.54;65.16
41264;BME280;26998;48.714;9.414;2022-09-09T12:40:24;98423.97;;;20.69;56.02
41264;BME280;26998;48.714;9.414;2022-09-09T12:42:50;98411.09;;;21.11;62.17
41264;BME280;26998;48.714;9.414;2022-09-09T12:45:19;98400.09;;;21.47;62.69
41264;BME280;26998;48.714;9.414;2022-09-09T12:48:06;98418.59;;;21.44;54.69
41264;BME280;26998;48.714;9.414;2022-09-09T12:50:49;98413.78;;;21.76;51.85
41264;BME280;26998;48.714;9.414;2022-09-09T12:53:29;98405.50;;;21.52;56.88
41264;BME280;26998;48.714;9.414;2022-09-09T12:56:01;98412.84;;;21.46;51.26
41264;BME280;26998;48.714;9.414;2022-09-09T12:58:38;98425.88;;;21.59;50.41
41264;BME280;26998;48.714;9.414;2022-09-09T13:01:05;98410.88;;;22.01;52.23
41264;BME280;26998;48.714;9.414;2022-09-09T13:03:42;98415.50;;;22.06;47.99
41264;BME280;26998;48.714;9.414;2022-09-09T13:06:18;98406.38;;;22.26;50.35
41264;BME280;26998;48.714;9.414;2022-09-09T13:08:56;98408.13;;;21.67;51.70
41264;BME280;26998;48.714;9.414;2022-09-09T13:11:39;98405.72;;;21.65;53.69
41264;BME280;26998;48.714;9.414;2022-09-09T13:14:18;98414.09;;;21.69;52.27
41264;BME280;26998;48.714;9.414;2022-09-09T13:16:57;98421.88;;;21.86;50.15
41264;BME280;26998;48.714;9.414;2022-09-09T13:19:37;98417.44;;;22.00;48.89
41264;BME280;26998;48.714;9.414;2022-09-09T13:22:20;98411.06;;;21.81;47.70
41264;BME280;26998;48.714;9.414;2022-09-09T13:27:35;98392.50;;;21.33;49.16
41264;BME280;26998;48.714;9.414;2022-09-09T13:38:14;98397.13;;;21.33;50.38
41264;BME280;26998;48.714;9.414;2022-09-09T13:43:22;98391.16;;;21.31;47.80
41264;BME280;26998;48.714;9.414;2022-09-09T13:45:58;98389.88;;;21.73;47.63
41264;BME280;26998;48.714;9.414;2022-09-09T13:48:25;98383.91;;;22.05;48.25
41264;BME280;26998;48.714;9.414;2022-09-09T13:51:01;98376.06;;;22.38;47.65
41264;BME280;26998;48.714;9.414;2022-09-09T13:53:34;98382.13;;;22.82;46.51
41264;BME280;26998;48.714;9.414;2022-09-09T13:56:02;98381.38;;;22.53;45.43
41264;BME280;26998;48.714;9.414;2022-09-09T13:58:28;98378.53;;;22.87;44.41
41264;BME280;26998;48.714;9.414;2022-09-09T14:00:55;98386.06;;;22.42;46.21
41264;BME280;26998;48.714;9.414;2022-09-09T14:03:21;98384.00;;;22.58;44.82
41264;BME280;26998;48.714;9.414;2022-09-09T14:05:48;98388.38;;;22.83;45.25
41264;BME280;26998;48.714;9.414;2022-09-09T14:08:20;98389.41;;;22.63;45.61
41264;BME280;26998;48.714;9.414;2022-09-09T14:10:47;98392.72;;;22.31;47.40
41264;BME280;26998;48.714;9.414;2022-09-09T14:16:36;98381.19;;;22.92;46.68
41264;BME280;26998;48.714;9.414;2022-09-09T14:19:03;98370.84;;;22.41;45.24
41264;BME280;26998;48.714;9.414;2022-09-09T14:21:29;98378.22;;;22.65;45.50
41264;BME280;26998;48.714;9.414;2022-09-09T14:23:56;98383.72;;;21.96;43.14
41264;BME280;26998;48.714;9.414;2022-09-09T14:26:23;98387.09;;;21.83;44.00
41264;BME280;26998;48.714;9.414;2022-09-09T14:28:50;98379.81;;;22.07;44.01
41264;BME280;26998;48.714;9.414;2022-09-09T14:31:24;98379.84;;;22.02;43.66
41264;BME280;26998;48.714;9.414;2022-09-09T14:33:51;98377.66;;;22.04;44.85
41264;BME280;26998;48.714;9.414;2022-09-09T14:36:18;98375.28;;;22.32;44.78
41264;BME280;26998;48.714;9.414;2022-09-09T14:38:44;98375.56;;;22.59;44.64
41264;BME280;26998;48.714;9.414;2022-09-09T14:41:16;98374.41;;;22.66;44.83
41264;BME280;26998;48.714;9.414;2022-09-09T14:43:43;98372.28;;;22.63;42.68
41264;BME280;26998;48.714;9.414;2022-09-09T14:46:13;98377.75;;;22.57;41.92
41264;BME280;26998;48.714;9.414;2022-09-09T14:48:40;98382.44;;;22.81;41.81
41264;BME280;26998;48.714;9.414;2022-09-09T14:51:08;98378.63;;;22.77;41.79
41264;BME280;26998;48.714;9.414;2022-09-09T14:53:35;98381.31;;;22.82;42.45
41264;BME280;26998;48.714;9.414;2022-09-09T14:56:09;98375.22;;;22.66;42.43
41264;BME280;26998;48.714;9.414;2022-09-09T14:58:36;98384.00;;;23.11;41.81
41264;BME280;26998;48.714;9.414;2022-09-09T15:01:08;98375.91;;;22.77;40.75
41264;BME280;26998;48.714;9.414;2022-09-09T15:03:35;98380.06;;;22.74;41.21
41264;BME280;26998;48.714;9.414;2022-09-09T15:06:10;98378.44;;;22.44;41.66
41264;BME280;26998;48.714;9.414;2022-09-09T15:08:39;98371.16;;;22.64;41.57
41264;BME280;26998;48.714;9.414;2022-09-09T15:11:09;98382.59;;;22.66;40.56
41264;BME280;26998;48.714;9.414;2022-09-09T15:13:37;98369.69;;;22.47;39.80
41264;BME280;26998;48.714;9.414;2022-09-09T15:16:05;98385.81;;;22.68;40.42
41264;BME280;26998;48.714;9.414;2022-09-09T15:18:33;98384.56;;;22.60;41.08
41264;BME280;26998;48.714;9.414;2022-09-09T15:21:00;98379.97;;;22.26;42.08
41264;BME280;26998;48.714;9.414;2022-09-09T15:23:26;98365.97;;;22.04;41.69